Main page
METAR-TAF:

METAR-TAF

Airports :

Córdoba Airport

Córdoba, Spain

latitude: 37-51N, longitude: 004-51W, elevation: 90 m

Current weather observation

The report was made 30 minutes ago, at 12:00 UTC
Wind 2 kt from the Southwest
Temperature 27°C
Humidity 45%
Pressure 1018 hPa
Visibility 10 km or more
Few clouds at a height of 3500 ft

METAR: LEBA 211200Z 22002KT 9999 FEW035 27/14 Q1018

Time: 14:30 (12:30 UTC)

Forecast

The report was made 4 hours and 30 minutes ago, at 08:00 UTC
Forecast valid from 21 at 09 UTC to 22 at 09 UTC
Wind 3 kt from variable directions
Visibility 10 km or more
no clouds below 1500 m and no cumulonimbus
Probability 40% :
Temporary
from 21 at 16 UTC to 21 at 19 UTC
Wind 10 kt from the Southwest

TAF: LEBA 210800Z 2109/2209 VRB03KT CAVOK TX30/2116Z TN16/2206Z PROB40 TEMPO 2116/2119 23010KT

Weather observations and forecasts of more than 4000 airports (METAR and TAF reports).

The available stations are represented by yellow and red dots on the map.

Hover mouse over dot to see the name of the station.

Then click to see weather observations and forecasts.

To change the map : click on the green buttons with a black cross to zoom in, on the green button with a dash to zoom out, or on the green arrows for adjacent maps.


METAR-TAF: